Time;durP1;ratioP1;P1;durP2;ratioP2;P2;SDS_P1;SDS_P2;PMS_P1;PMS_P2;Temp;Humidity;BMP_temperature;BMP_pressure;BME280_temperature;BME280_humidity;BME280_pressure;Samples;Min_cycle;Max_cycle;Signal;HPM_P1;HPM_P2
2023/03/22 00:01:35;;;;;;;4.18;2.28;;;11.70;99.90;;;;;;4953952;28;20052;-77
2023/03/22 00:04:02;;;;;;;7.22;2.45;;;11.60;99.90;;;;;;4960178;28;20141;-77
2023/03/22 00:06:29;;;;;;;5.10;1.95;;;11.60;99.90;;;;;;4951888;28;20110;-77
2023/03/22 00:08:55;;;;;;;4.93;2.63;;;11.60;99.90;;;;;;4960326;28;20411;-77
2023/03/22 00:11:26;;;;;;;5.65;2.67;;;11.50;99.90;;;;;;4956613;28;20057;-77
2023/03/22 00:13:53;;;;;;;5.10;2.40;;;11.50;99.90;;;;;;4962208;28;20074;-77
2023/03/22 00:16:20;;;;;;;3.67;2.08;;;11.50;99.90;;;;;;4960103;28;20042;-77
2023/03/22 00:18:47;;;;;;;5.57;2.35;;;11.50;99.90;;;;;;4962679;28;20423;-77
2023/03/22 00:21:15;;;;;;;3.45;1.90;;;11.40;99.90;;;;;;4964760;28;20053;-77
2023/03/22 00:23:43;;;;;;;5.45;2.20;;;11.40;99.90;;;;;;4963273;28;20055;-77
2023/03/22 00:26:11;;;;;;;4.40;1.98;;;11.40;99.90;;;;;;4959065;28;20047;-77
2023/03/22 00:28:38;;;;;;;4.28;2.13;;;11.40;99.90;;;;;;4962008;28;20066;-78
2023/03/22 00:31:05;;;;;;;5.38;2.25;;;11.30;99.90;;;;;;4980645;28;20047;-77
2023/03/22 00:33:32;;;;;;;4.85;2.10;;;11.30;99.90;;;;;;4965489;28;20047;-77
2023/03/22 00:36:10;;;;;;;4.05;2.30;;;11.30;99.90;;;;;;4963233;28;20051;-78
2023/03/22 00:38:37;;;;;;;5.43;2.00;;;11.30;99.90;;;;;;4962375;28;20047;-77
2023/03/22 00:41:10;;;;;;;5.60;2.60;;;11.30;99.90;;;;;;4961565;28;20092;-78
2023/03/22 00:43:37;;;;;;;3.72;1.98;;;11.20;99.90;;;;;;4958568;28;20047;-78
2023/03/22 00:46:04;;;;;;;6.95;2.33;;;11.20;99.90;;;;;;4961609;28;20051;-78
2023/03/22 00:48:32;;;;;;;4.15;2.17;;;11.20;99.90;;;;;;4960008;28;20055;-78
2023/03/22 00:50:59;;;;;;;3.53;2.22;;;11.20;99.90;;;;;;4964944;28;20047;-77
2023/03/22 00:53:27;;;;;;;9.57;2.10;;;11.20;99.90;;;;;;4957192;28;20131;-78
2023/03/22 00:55:56;;;;;;;5.18;2.30;;;11.10;99.90;;;;;;4963569;28;20047;-78
2023/03/22 00:58:22;;;;;;;4.20;2.05;;;11.10;99.90;;;;;;4957026;28;20130;-77
2023/03/22 01:00:49;;;;;;;9.85;2.05;;;11.10;99.90;;;;;;4962589;28;20066;-77
2023/03/22 01:03:16;;;;;;;5.43;2.13;;;11.10;99.90;;;;;;4960004;28;20061;-78
2023/03/22 01:05:48;;;;;;;5.40;2.33;;;11.10;99.90;;;;;;4963082;28;20086;-78
2023/03/22 01:08:15;;;;;;;5.47;2.00;;;11.00;99.90;;;;;;4959165;28;20050;-78
2023/03/22 01:10:43;;;;;;;6.68;2.50;;;11.00;99.90;;;;;;4963347;28;20134;-78
2023/03/22 01:13:11;;;;;;;5.30;2.35;;;11.00;99.90;;;;;;4958194;28;20521;-78
2023/03/22 01:15:38;;;;;;;6.38;2.25;;;10.90;99.90;;;;;;4963799;28;20049;-79
2023/03/22 01:18:06;;;;;;;3.55;1.88;;;10.90;99.90;;;;;;4958880;28;20046;-78
2023/03/22 01:20:33;;;;;;;5.97;2.15;;;11.00;99.90;;;;;;4963790;28;20065;-78
2023/03/22 01:23:00;;;;;;;6.40;2.33;;;10.90;99.90;;;;;;4961672;28;20051;-78
2023/03/22 01:25:26;;;;;;;6.15;3.42;;;10.90;99.90;;;;;;4957553;28;20427;-77
2023/03/22 01:27:53;;;;;;;7.32;2.60;;;10.90;99.90;;;;;;4960025;28;20046;-78
2023/03/22 01:30:20;;;;;;;9.38;3.10;;;10.90;99.90;;;;;;4958558;28;20499;-78
2023/03/22 01:32:46;;;;;;;7.13;2.65;;;10.90;99.90;;;;;;4958672;28;20419;-77
2023/03/22 01:35:13;;;;;;;5.93;2.10;;;10.80;99.90;;;;;;4973554;28;20066;-78
2023/03/22 01:37:40;;;;;;;5.88;2.20;;;10.80;99.90;;;;;;4962598;28;20059;-79
2023/03/22 01:40:08;;;;;;;5.82;2.75;;;10.80;99.90;;;;;;4959036;28;20498;-78
2023/03/22 01:42:35;;;;;;;4.45;2.22;;;10.80;99.90;;;;;;4962372;28;20051;-78
2023/03/22 01:45:15;;;;;;;7.65;2.50;;;10.80;99.90;;;;;;4957964;28;20051;-78
2023/03/22 01:47:50;;;;;;;4.35;2.40;;;10.70;99.90;;;;;;4962717;28;20091;-78
2023/03/22 01:50:18;;;;;;;6.10;2.22;;;10.70;99.90;;;;;;4955421;28;20055;-78
2023/03/22 01:52:46;;;;;;;5.63;2.10;;;10.70;99.90;;;;;;4962089;28;20055;-78
2023/03/22 01:55:13;;;;;;;4.93;2.10;;;10.70;99.90;;;;;;4974685;28;20058;-78
2023/03/22 01:57:41;;;;;;;5.07;2.47;;;10.70;99.90;;;;;;4964362;28;20057;-78
2023/03/22 02:00:14;;;;;;;4.43;2.20;;;10.70;99.90;;;;;;4959290;28;20042;-78
2023/03/22 02:02:47;;;;;;;3.92;2.15;;;10.70;99.90;;;;;;4958193;28;20054;-78
2023/03/22 02:05:14;;;;;;;4.93;2.40;;;10.60;99.90;;;;;;4957459;28;20043;-78
2023/03/22 02:07:42;;;;;;;6.90;2.63;;;10.60;99.90;;;;;;4955035;28;20138;-79
2023/03/22 02:10:15;;;;;;;6.95;2.13;;;10.60;99.90;;;;;;4956392;28;20057;-78
2023/03/22 02:12:56;;;;;;;6.30;2.20;;;10.60;99.90;;;;;;4956014;28;20047;-78
2023/03/22 02:15:54;;;;;;;4.93;2.38;;;10.60;99.90;;;;;;4962830;28;20070;-77
2023/03/22 02:18:31;;;;;;;5.10;1.95;;;10.50;99.90;;;;;;4957231;28;20052;-77
2023/03/22 02:21:27;;;;;;;3.03;2.03;;;10.50;99.90;;;;;;4964124;28;20055;-77
2023/03/22 02:24:18;;;;;;;5.10;2.70;;;10.50;99.90;;;;;;4960286;28;20062;-77
2023/03/22 02:27:05;;;;;;;;;;;10.50;99.90;;;;;;4960080;28;20055;-78
2023/03/22 02:29:52;;;;;;;5.45;1.98;;;10.50;99.90;;;;;;4962937;28;20409;-78
2023/03/22 02:32:52;;;;;;;4.82;2.20;;;10.50;99.90;;;;;;4957360;28;20054;-76
2023/03/22 02:35:22;;;;;;;;;;;10.50;99.90;;;;;;4965597;28;20049;-77
2023/03/22 02:38:10;;;;;;;10.70;2.87;;;10.50;99.90;;;;;;4958166;28;19922;-78
2023/03/22 02:41:08;;;;;;;2.90;2.00;;;10.50;99.90;;;;;;4963544;28;20842;-76
2023/03/22 02:44:07;;;;;;;3.03;2.10;;;10.50;99.90;;;;;;4973495;28;20047;-78
2023/03/22 02:47:00;;;;;;;7.18;2.10;;;10.40;99.90;;;;;;4961053;28;20048;-78
2023/03/22 02:49:52;;;;;;;3.20;1.65;;;10.40;99.90;;;;;;4965484;28;20051;-77
2023/03/22 02:52:45;;;;;;;6.25;2.05;;;10.40;99.90;;;;;;4967309;28;20047;-78
2023/03/22 02:55:38;;;;;;;5.13;2.17;;;10.40;99.90;;;;;;4958361;28;20039;-78
2023/03/22 02:58:16;;;;;;;3.60;1.80;;;10.40;99.90;;;;;;4962950;28;20131;-77
2023/03/22 03:00:49;;;;;;;4.43;2.20;;;10.40;99.90;;;;;;4959269;28;20147;-78
2023/03/22 03:03:18;;;;;;;5.65;2.08;;;10.30;99.90;;;;;;4964366;28;20058;-78
2023/03/22 03:05:49;;;;;;;3.60;1.75;;;10.30;99.90;;;;;;4973824;28;20061;-78
2023/03/22 03:08:18;;;;;;;3.33;1.67;;;10.30;99.90;;;;;;4964601;28;20054;-78
2023/03/22 03:10:46;;;;;;;7.68;2.28;;;10.30;99.90;;;;;;4959247;28;20055;-78
2023/03/22 03:13:15;;;;;;;7.75;2.42;;;10.30;99.90;;;;;;4965380;28;20047;-77
2023/03/22 03:15:45;;;;;;;6.85;1.92;;;10.30;99.90;;;;;;4958512;28;20043;-77
2023/03/22 03:18:39;;;;;;;3.50;2.10;;;10.30;99.90;;;;;;4964546;28;20039;-78
2023/03/22 03:21:41;;;;;;;5.60;2.10;;;10.30;99.90;;;;;;4968839;28;20079;-78
2023/03/22 03:24:34;;;;;;;3.80;2.08;;;10.30;99.90;;;;;;4964332;28;20062;-78
2023/03/22 03:27:26;;;;;;;5.05;1.98;;;10.20;99.90;;;;;;4970611;28;20111;-78
2023/03/22 03:30:07;;;;;;;3.28;1.88;;;10.20;99.90;;;;;;4963050;28;20086;-77
2023/03/22 03:32:51;;;;;;;2.83;1.80;;;10.20;99.90;;;;;;4962259;28;20054;-78
2023/03/22 03:35:26;;;;;;;3.95;2.13;;;10.20;99.90;;;;;;4956767;28;20527;-77
2023/03/22 03:38:00;;;;;;;6.05;2.40;;;10.20;99.90;;;;;;4957985;28;20079;-78
2023/03/22 03:40:30;;;;;;;4.15;2.28;;;10.20;99.90;;;;;;4961274;28;20054;-77
2023/03/22 03:43:00;;;;;;;4.50;2.13;;;10.10;99.90;;;;;;4958074;28;20422;-77
2023/03/22 03:45:28;;;;;;;6.15;1.83;;;10.10;99.90;;;;;;4961145;28;20072;-78
2023/03/22 03:47:58;;;;;;;5.78;2.17;;;10.00;99.90;;;;;;4960092;28;20063;-78
2023/03/22 03:50:25;;;;;;;5.95;2.08;;;10.00;99.90;;;;;;4969551;28;20122;-77
2023/03/22 03:52:53;;;;;;;7.22;2.30;;;10.00;99.90;;;;;;4982107;28;20058;-77
2023/03/22 03:55:21;;;;;;;3.17;1.63;;;10.00;99.90;;;;;;4976348;28;20051;-78
2023/03/22 03:57:48;;;;;;;5.70;2.83;;;9.90;99.90;;;;;;4963566;28;20078;-78
2023/03/22 04:00:16;;;;;;;5.18;2.38;;;10.00;99.90;;;;;;4968996;28;20118;-78
2023/03/22 04:02:43;;;;;;;5.43;2.40;;;10.00;99.90;;;;;;4958519;28;20133;-78
2023/03/22 04:05:12;;;;;;;5.05;2.00;;;10.00;99.90;;;;;;4965703;28;20047;-78
2023/03/22 04:07:39;;;;;;;5.00;2.15;;;9.90;99.90;;;;;;4957335;28;20059;-78
2023/03/22 04:10:06;;;;;;;4.30;2.25;;;9.90;99.90;;;;;;4962132;28;20070;-77
2023/03/22 04:12:33;;;;;;;3.80;2.05;;;9.90;99.90;;;;;;4961018;28;20050;-77
2023/03/22 04:15:00;;;;;;;5.05;2.10;;;9.80;99.90;;;;;;4962362;28;20131;-78
2023/03/22 04:17:28;;;;;;;7.18;2.75;;;9.80;99.90;;;;;;4960479;28;20054;-77
2023/03/22 04:19:55;;;;;;;5.20;2.20;;;9.80;99.90;;;;;;4961410;28;20055;-77
2023/03/22 04:22:22;;;;;;;4.20;1.77;;;9.80;99.90;;;;;;4956914;28;20078;-78
2023/03/22 04:24:49;;;;;;;4.07;2.40;;;9.70;99.90;;;;;;4956759;28;20062;-77
2023/03/22 04:27:16;;;;;;;5.38;2.35;;;9.70;99.90;;;;;;4964609;28;20145;-77
2023/03/22 04:29:51;;;;;;;4.72;2.10;;;9.70;99.90;;;;;;4959744;28;20051;-78
2023/03/22 04:32:18;;;;;;;6.78;2.25;;;9.60;99.90;;;;;;4977896;28;20070;-78
2023/03/22 04:34:45;;;;;;;7.72;2.10;;;9.60;99.90;;;;;;4959949;28;20107;-77
2023/03/22 04:37:13;;;;;;;3.65;2.00;;;9.60;99.90;;;;;;4978625;28;20138;-78
2023/03/22 04:39:40;;;;;;;4.95;2.75;;;9.60;99.90;;;;;;4959654;28;20130;-78
2023/03/22 04:42:07;;;;;;;6.18;1.75;;;9.50;99.90;;;;;;4963127;28;20059;-78
2023/03/22 04:44:34;;;;;;;3.45;1.73;;;9.50;99.90;;;;;;4956961;28;20111;-78
2023/03/22 04:47:01;;;;;;;7.13;1.95;;;9.50;99.90;;;;;;4968139;28;20051;-77
2023/03/22 04:49:28;;;;;;;8.60;2.08;;;9.50;99.90;;;;;;4959885;28;20566;-77
2023/03/22 04:51:55;;;;;;;6.07;1.90;;;9.50;99.90;;;;;;4965036;28;20043;-77
2023/03/22 04:54:22;;;;;;;3.42;1.60;;;9.40;99.90;;;;;;4958938;28;20051;-77
2023/03/22 04:56:49;;;;;;;2.85;1.73;;;9.40;99.90;;;;;;4971471;28;20079;-78
2023/03/22 04:59:19;;;;;;;3.28;1.70;;;9.40;99.90;;;;;;4956135;28;20051;-77
2023/03/22 05:01:50;;;;;;;5.80;1.70;;;9.40;99.90;;;;;;4953103;28;20471;-77
2023/03/22 05:04:18;;;;;;;5.75;1.77;;;9.40;99.90;;;;;;4958223;28;20047;-77
2023/03/22 05:06:45;;;;;;;3.45;1.80;;;9.40;99.90;;;;;;4957546;28;20110;-77
2023/03/22 05:09:13;;;;;;;4.30;1.90;;;9.40;99.90;;;;;;4959376;28;20050;-77
2023/03/22 05:11:40;;;;;;;5.22;1.70;;;9.30;99.90;;;;;;4960718;28;20047;-76
2023/03/22 05:14:08;;;;;;;3.70;1.77;;;9.30;99.90;;;;;;4958771;28;20074;-78
2023/03/22 05:16:35;;;;;;;7.43;2.17;;;9.30;99.90;;;;;;4959762;28;20053;-79
2023/03/22 05:19:01;;;;;;;4.90;2.00;;;9.20;99.90;;;;;;4959365;28;20412;-78
2023/03/22 05:21:35;;;;;;;5.90;2.33;;;9.20;99.90;;;;;;4974177;28;20050;-78
2023/03/22 05:24:02;;;;;;;3.75;2.58;;;9.20;99.90;;;;;;4960076;28;20506;-77
2023/03/22 05:26:29;;;;;;;5.80;2.05;;;9.20;99.90;;;;;;4962053;28;20051;-78
2023/03/22 05:28:55;;;;;;;6.72;1.90;;;9.20;99.90;;;;;;4961038;28;20046;-77
2023/03/22 05:31:22;;;;;;;5.55;2.15;;;9.20;99.90;;;;;;4961996;28;20134;-77
2023/03/22 05:33:52;;;;;;;8.07;2.20;;;9.20;99.90;;;;;;4962331;28;20134;-77
2023/03/22 05:36:20;;;;;;;7.90;2.05;;;9.20;99.90;;;;;;4959479;28;20058;-77
2023/03/22 05:38:47;;;;;;;3.20;1.98;;;9.20;99.90;;;;;;4961282;28;20054;-77
2023/03/22 05:41:14;;;;;;;3.83;1.85;;;9.10;99.90;;;;;;4958805;28;20118;-78
2023/03/22 05:43:41;;;;;;;12.82;2.35;;;9.20;99.90;;;;;;4960963;28;20047;-78
2023/03/22 05:46:09;;;;;;;4.57;2.08;;;9.10;99.90;;;;;;4958427;28;20047;-77
2023/03/22 05:48:38;;;;;;;4.80;3.03;;;9.10;99.90;;;;;;4960207;28;20053;-78
2023/03/22 05:51:06;;;;;;;7.18;2.00;;;9.10;99.90;;;;;;4958452;28;20051;-77
2023/03/22 05:53:33;;;;;;;4.75;1.83;;;9.10;99.90;;;;;;4963309;28;20522;-79
2023/03/22 05:56:00;;;;;;;4.85;2.00;;;9.10;99.90;;;;;;4956743;28;20451;-78
2023/03/22 05:58:29;;;;;;;7.07;2.03;;;9.10;99.90;;;;;;4961656;28;20047;-78
2023/03/22 06:00:59;;;;;;;5.78;2.15;;;9.10;99.90;;;;;;4956512;28;20051;-77
2023/03/22 06:03:27;;;;;;;4.00;1.85;;;9.10;99.90;;;;;;4991167;28;20050;-78
2023/03/22 06:05:54;;;;;;;3.28;2.03;;;9.10;99.90;;;;;;4971292;28;20047;-77
2023/03/22 06:08:21;;;;;;;5.72;1.92;;;9.10;99.90;;;;;;4963934;28;20585;-77
2023/03/22 06:10:52;;;;;;;4.35;2.35;;;9.10;99.90;;;;;;4961742;28;20051;-78
2023/03/22 06:13:20;;;;;;;3.38;1.80;;;9.20;99.90;;;;;;4965041;28;20089;-79
2023/03/22 06:15:46;;;;;;;5.18;1.95;;;9.20;99.90;;;;;;4960851;28;20113;-78
2023/03/22 06:18:13;;;;;;;5.85;2.30;;;9.20;99.90;;;;;;4960731;28;20072;-78
2023/03/22 06:20:40;;;;;;;4.72;1.88;;;9.20;99.90;;;;;;4959960;28;20051;-78
2023/03/22 06:23:07;;;;;;;6.97;2.83;;;9.30;99.90;;;;;;4960589;28;20079;-79
2023/03/22 06:25:34;;;;;;;4.97;3.13;;;9.30;99.90;;;;;;4962673;28;20057;-78
2023/03/22 06:28:01;;;;;;;9.85;2.45;;;9.30;99.90;;;;;;4958851;28;20475;-77
2023/03/22 06:30:28;;;;;;;6.45;2.20;;;9.30;99.90;;;;;;4964540;28;20553;-78
2023/03/22 06:32:59;;;;;;;5.22;2.28;;;9.40;99.90;;;;;;4958375;28;20043;-78
2023/03/22 06:35:26;;;;;;;3.40;1.80;;;9.40;99.90;;;;;;4965138;28;20101;-78
2023/03/22 06:37:53;;;;;;;5.75;2.30;;;9.40;99.90;;;;;;4957781;28;20557;-78
2023/03/22 06:40:20;;;;;;;3.30;1.50;;;9.50;99.90;;;;;;4961302;28;20426;-79
2023/03/22 06:42:47;;;;;;;8.10;1.73;;;9.50;99.90;;;;;;4960174;28;20044;-78
2023/03/22 06:45:15;;;;;;;2.65;1.00;;;9.60;99.90;;;;;;4966358;28;20043;-79
2023/03/22 06:47:42;;;;;;;2.67;1.20;;;9.60;99.90;;;;;;4957329;28;20050;-78
2023/03/22 06:50:10;;;;;;;3.03;1.10;;;9.70;99.90;;;;;;4965575;28;20051;-78
2023/03/22 06:52:36;;;;;;;2.72;1.10;;;9.70;99.90;;;;;;4958124;28;20058;-78
2023/03/22 06:55:03;;;;;;;1.65;1.00;;;9.80;99.90;;;;;;4966445;28;20515;-78
2023/03/22 06:57:30;;;;;;;2.33;0.95;;;9.90;99.90;;;;;;4967127;28;20106;-78
2023/03/22 06:59:57;;;;;;;1.65;0.90;;;10.00;99.90;;;;;;4963289;28;20050;-79
2023/03/22 07:02:23;;;;;;;2.13;0.90;;;10.00;99.90;;;;;;4958516;28;20047;-78
2023/03/22 07:04:50;;;;;;;2.28;1.00;;;10.10;99.90;;;;;;4963804;28;20054;-78
2023/03/22 07:07:17;;;;;;;1.63;0.80;;;10.30;99.90;;;;;;4961846;28;20428;-78
2023/03/22 07:09:44;;;;;;;1.98;0.82;;;10.40;99.90;;;;;;4962830;28;20051;-79
2023/03/22 07:12:10;;;;;;;2.05;0.90;;;10.60;99.90;;;;;;4962858;28;20047;-78
2023/03/22 07:14:37;;;;;;;4.30;0.85;;;10.60;99.90;;;;;;4979334;28;20054;-77
2023/03/22 07:17:04;;;;;;;3.58;0.73;;;10.70;99.90;;;;;;4961512;28;20046;-78
2023/03/22 07:19:31;;;;;;;1.00;0.80;;;10.80;99.90;;;;;;4963087;28;20492;-77
2023/03/22 07:21:58;;;;;;;1.58;0.77;;;10.90;99.90;;;;;;4963259;28;20453;-77
2023/03/22 07:24:24;;;;;;;0.73;0.65;;;11.00;99.90;;;;;;4967552;28;20050;-79
2023/03/22 07:26:51;;;;;;;1.23;0.70;;;11.10;99.90;;;;;;4966205;28;20039;-78
2023/03/22 07:29:18;;;;;;;1.13;0.60;;;11.20;99.90;;;;;;4966721;28;20054;-78
2023/03/22 07:31:44;;;;;;;1.95;1.10;;;11.20;99.90;;;;;;4971139;28;20043;-79
2023/03/22 07:34:11;;;;;;;1.77;0.80;;;11.30;99.90;;;;;;4979866;28;20083;-79
2023/03/22 07:36:38;;;;;;;2.25;0.60;;;11.40;99.90;;;;;;4965651;28;20075;-79
2023/03/22 07:39:04;;;;;;;2.22;0.50;;;11.40;99.90;;;;;;4968818;28;20491;-79
2023/03/22 07:41:31;;;;;;;1.70;0.65;;;11.50;99.90;;;;;;4983650;28;20099;-79
2023/03/22 07:43:58;;;;;;;0.80;0.60;;;11.60;99.90;;;;;;5006738;28;20056;-79
2023/03/22 07:46:42;;;;;;;2.15;0.60;;;11.60;99.90;;;;;;4982175;28;20031;-79
2023/03/22 07:49:09;;;;;;;0.95;0.45;;;11.60;99.90;;;;;;4993098;28;20087;-79
2023/03/22 07:51:35;;;;;;;0.50;0.50;;;11.70;99.90;;;;;;4986238;28;20412;-78
2023/03/22 07:54:02;;;;;;;3.72;1.00;;;11.80;99.90;;;;;;4970103;28;20055;-78
2023/03/22 07:56:30;;;;;;;1.23;0.50;;;11.90;99.90;;;;;;4964127;28;20134;-79
2023/03/22 07:58:57;;;;;;;4.40;0.68;;;11.90;99.90;;;;;;4957985;28;20131;-78
2023/03/22 08:01:24;;;;;;;0.70;0.50;;;12.00;99.90;;;;;;4957573;28;20047;-79
2023/03/22 08:03:51;;;;;;;0.70;0.50;;;12.10;99.90;;;;;;4960066;28;20057;-78
2023/03/22 08:06:20;;;;;;;0.75;0.60;;;12.10;99.90;;;;;;4958584;28;20404;-78
2023/03/22 08:08:47;;;;;;;2.55;0.52;;;12.20;99.90;;;;;;4958608;28;20051;-79
2023/03/22 08:11:13;;;;;;;2.95;1.10;;;12.30;99.90;;;;;;4964098;28;20055;-79
2023/03/22 08:13:40;;;;;;;0.73;0.40;;;12.30;99.90;;;;;;4958527;28;20057;-79
2023/03/22 08:16:07;;;;;;;3.67;0.80;;;12.40;99.90;;;;;;4961731;28;20139;-78
2023/03/22 08:18:34;;;;;;;0.55;0.50;;;12.50;99.90;;;;;;4954990;28;20045;-78
2023/03/22 08:21:00;;;;;;;2.33;0.85;;;12.50;99.90;;;;;;4958163;28;20488;-78
2023/03/22 08:23:27;;;;;;;1.55;0.50;;;12.60;99.90;;;;;;4958617;28;20522;-77
2023/03/22 08:26:07;;;;;;;0.47;0.47;;;12.70;99.90;;;;;;4951484;28;20054;-79
2023/03/22 08:28:34;;;;;;;0.95;0.60;;;12.80;99.90;;;;;;4959298;28;20054;-78
2023/03/22 08:31:01;;;;;;;0.93;0.55;;;12.90;99.90;;;;;;4956907;28;20422;-77
2023/03/22 08:33:27;;;;;;;1.08;0.50;;;13.00;99.90;;;;;;4965302;28;20049;-77
2023/03/22 08:36:09;;;;;;;0.75;0.40;;;13.10;99.90;;;;;;4960775;28;20070;-78
2023/03/22 08:38:35;;;;;;;1.95;0.60;;;13.20;99.90;;;;;;4959456;28;20043;-78
2023/03/22 08:41:02;;;;;;;1.27;0.60;;;13.20;99.90;;;;;;4960863;28;20043;-78
2023/03/22 08:43:29;;;;;;;1.75;0.50;;;13.30;99.90;;;;;;4961718;28;20053;-78
2023/03/22 08:45:56;;;;;;;3.00;0.75;;;13.40;99.90;;;;;;4957556;28;20063;-78
2023/03/22 08:48:23;;;;;;;1.23;0.70;;;13.40;99.90;;;;;;4957267;28;20090;-78
2023/03/22 08:50:50;;;;;;;0.77;0.60;;;13.50;99.90;;;;;;4957593;28;20051;-79
2023/03/22 08:53:17;;;;;;;2.78;0.70;;;13.60;99.90;;;;;;4965213;28;20566;-77
2023/03/22 08:55:43;;;;;;;1.10;0.60;;;13.70;99.90;;;;;;4958693;28;20499;-78
2023/03/22 08:58:12;;;;;;;2.28;0.73;;;13.70;99.90;;;;;;4965011;28;20051;-78
2023/03/22 09:00:39;;;;;;;1.15;0.68;;;13.80;99.90;;;;;;4958461;28;20078;-77
2023/03/22 09:03:15;;;;;;;0.65;0.40;;;13.80;99.90;;;;;;4965349;28;20051;-80
2023/03/22 09:05:41;;;;;;;1.30;0.70;;;13.80;99.90;;;;;;4959960;28;20046;-78
2023/03/22 09:08:08;;;;;;;0.70;0.40;;;13.90;99.90;;;;;;4963264;28;20408;-78
2023/03/22 09:10:50;;;;;;;0.88;0.57;;;13.90;99.90;;;;;;4958917;28;20099;-79
2023/03/22 09:13:18;;;;;;;2.38;0.68;;;13.90;99.90;;;;;;4962108;28;20077;-78
2023/03/22 09:15:44;;;;;;;0.93;0.60;;;14.00;99.90;;;;;;4955107;28;20049;-78
2023/03/22 09:18:14;;;;;;;1.20;0.60;;;14.00;99.90;;;;;;4972343;28;20047;-78
2023/03/22 09:20:41;;;;;;;1.40;0.73;;;14.00;99.90;;;;;;4958839;28;20050;-78
2023/03/22 09:23:08;;;;;;;3.90;0.60;;;14.10;99.90;;;;;;4958693;28;20047;-78
2023/03/22 09:25:35;;;;;;;1.50;0.82;;;14.10;99.90;;;;;;4954596;28;20043;-78
2023/03/22 09:28:02;;;;;;;0.50;0.50;;;14.10;99.90;;;;;;4945641;28;20047;-79
2023/03/22 09:30:30;;;;;;;2.20;0.63;;;14.20;99.90;;;;;;4957616;28;20078;-78
2023/03/22 09:32:56;;;;;;;0.65;0.50;;;14.30;99.90;;;;;;4960822;28;20063;-78
2023/03/22 09:35:23;;;;;;;0.80;0.77;;;14.30;99.90;;;;;;4961035;28;20054;-78
2023/03/22 09:37:52;;;;;;;1.67;0.60;;;14.30;99.90;;;;;;4977277;23;20051;-76
2023/03/22 09:40:20;;;;;;;0.60;0.50;;;14.40;99.90;;;;;;4951567;28;20043;-76
2023/03/22 09:42:50;;;;;;;1.40;0.70;;;14.40;99.90;;;;;;4949248;28;20047;-76
2023/03/22 09:45:31;;;;;;;1.20;0.60;;;14.50;99.90;;;;;;4945863;28;20495;-76
2023/03/22 09:47:58;;;;;;;0.73;0.60;;;14.50;99.90;;;;;;4945438;28;20054;-75
2023/03/22 09:50:28;;;;;;;1.73;0.60;;;14.60;99.90;;;;;;4948427;28;20062;-75
2023/03/22 09:52:55;;;;;;;0.85;0.63;;;14.60;99.90;;;;;;4947830;28;20661;-76
2023/03/22 09:55:32;;;;;;;1.95;0.40;;;14.60;99.90;;;;;;4949844;28;20051;-75
2023/03/22 09:58:21;;;;;;;2.15;0.70;;;14.70;99.90;;;;;;4951996;28;20058;-76
2023/03/22 10:00:56;;;;;;;1.63;0.85;;;14.70;99.90;;;;;;4949251;28;20044;-76
2023/03/22 10:03:55;;;;;;;1.23;0.63;;;14.70;99.90;;;;;;4954386;28;20104;-77
2023/03/22 10:06:24;;;;;;;1.07;0.67;;;14.80;99.90;;;;;;4946044;28;20091;-75
2023/03/22 10:08:53;;;;;;;0.68;0.60;;;14.80;99.90;;;;;;4950379;28;20671;-75
2023/03/22 10:11:44;;;;;;;2.55;0.63;;;14.90;99.90;;;;;;4952051;28;20153;-76
2023/03/22 10:14:22;;;;;;;2.20;0.80;;;14.90;99.90;;;;;;4948016;29;20043;-77
2023/03/22 10:16:51;;;;;;;3.60;0.70;;;14.90;99.90;;;;;;4943526;28;20043;-76
2023/03/22 10:19:28;;;;;;;1.02;0.68;;;15.00;99.90;;;;;;4947387;29;20101;-75
2023/03/22 10:22:00;;;;;;;1.27;0.65;;;15.10;99.90;;;;;;4951064;29;20043;-76
2023/03/22 10:24:37;;;;;;;0.70;0.60;;;15.10;99.90;;;;;;4948766;29;20162;-76
2023/03/22 10:27:15;;;;;;;1.58;0.80;;;15.20;99.90;;;;;;4945172;28;20129;-77
2023/03/22 10:29:55;;;;;;;2.15;0.95;;;15.30;99.90;;;;;;4947434;28;20058;-77
2023/03/22 10:32:30;;;;;;;5.95;1.23;;;15.30;99.90;;;;;;4944561;29;20559;-76
2023/03/22 10:34:57;;;;;;;1.88;0.60;;;15.40;99.90;;;;;;4944212;28;20058;-77
2023/03/22 10:37:31;;;;;;;0.88;0.65;;;15.50;99.90;;;;;;4945906;29;20051;-78
2023/03/22 10:40:05;;;;;;;0.82;0.60;;;15.60;99.90;;;;;;4949658;28;20122;-76
2023/03/22 10:42:35;;;;;;;3.65;0.60;;;15.60;99.90;;;;;;4948544;29;20063;-76
2023/03/22 10:45:06;;;;;;;3.35;0.70;;;15.70;99.90;;;;;;4943216;28;20084;-75
2023/03/22 10:47:49;;;;;;;1.55;0.80;;;15.70;99.90;;;;;;4953228;28;20057;-75
2023/03/22 10:50:35;;;;;;;2.50;0.80;;;15.70;99.90;;;;;;4951476;28;20075;-75
2023/03/22 10:53:24;;;;;;;3.35;1.25;;;15.70;99.90;;;;;;4929130;28;20050;-75
2023/03/22 10:55:51;;;;;;;2.60;1.00;;;15.80;99.90;;;;;;4982589;28;20045;-76
2023/03/22 10:58:20;;;;;;;4.53;1.20;;;15.80;99.90;;;;;;4964908;28;20114;-75
2023/03/22 11:00:52;;;;;;;2.90;1.08;;;15.80;99.90;;;;;;4962410;28;20051;-76
2023/03/22 11:03:35;;;;;;;1.35;0.77;;;15.90;99.90;;;;;;4961924;28;20059;-76
2023/03/22 11:06:16;;;;;;;1.65;0.90;;;15.90;99.90;;;;;;4967861;28;20057;-76
2023/03/22 11:08:53;;;;;;;1.63;1.00;;;15.90;99.90;;;;;;4964994;28;20466;-76
2023/03/22 11:11:22;;;;;;;3.45;0.90;;;16.00;99.90;;;;;;4964967;28;20055;-76
2023/03/22 11:13:57;;;;;;;2.97;0.80;;;16.00;99.90;;;;;;4963281;28;20051;-76
2023/03/22 11:16:25;;;;;;;2.42;1.05;;;16.00;99.90;;;;;;4961866;28;20047;-75
2023/03/22 11:18:53;;;;;;;2.97;1.10;;;16.00;99.90;;;;;;4963430;28;20534;-76
2023/03/22 11:21:26;;;;;;;1.80;1.00;;;16.00;99.90;;;;;;4965102;28;20130;-76
2023/03/22 11:24:00;;;;;;;3.05;1.15;;;16.10;99.90;;;;;;4964736;28;20055;-76
2023/03/22 11:26:32;;;;;;;1.00;0.95;;;16.10;99.90;;;;;;4963033;28;20062;-76
2023/03/22 11:29:12;;;;;;;1.50;0.90;;;16.20;99.90;;;;;;4962399;28;20423;-76
2023/03/22 11:31:58;;;;;;;2.40;0.88;;;16.20;99.90;;;;;;4961925;28;20059;-76
2023/03/22 11:34:29;;;;;;;1.10;0.90;;;16.20;99.90;;;;;;4970291;28;20043;-76
2023/03/22 11:36:59;;;;;;;4.05;1.10;;;16.20;99.90;;;;;;4970505;28;20053;-76
2023/03/22 11:39:28;;;;;;;2.83;1.38;;;16.30;99.90;;;;;;4961423;28;20053;-76
2023/03/22 11:42:00;;;;;;;2.15;1.20;;;16.30;99.90;;;;;;4962911;28;20047;-76
2023/03/22 11:44:31;;;;;;;2.10;1.17;;;16.40;99.90;;;;;;4964065;28;20109;-77
2023/03/22 11:47:00;;;;;;;1.98;1.20;;;16.50;99.90;;;;;;4971167;28;20054;-76
2023/03/22 11:49:43;;;;;;;1.50;1.10;;;16.50;99.90;;;;;;4953420;28;20452;-76
2023/03/22 11:52:16;;;;;;;1.52;1.23;;;16.50;99.90;;;;;;4961945;28;20057;-76
2023/03/22 11:54:44;;;;;;;1.15;0.70;;;16.50;99.90;;;;;;4961709;28;20051;-76
2023/03/22 11:57:26;;;;;;;1.23;0.70;;;16.60;99.90;;;;;;4966377;28;20408;-75
2023/03/22 12:00:18;;;;;;;1.25;0.70;;;16.60;99.90;;;;;;4958961;28;20051;-75
2023/03/22 12:02:57;;;;;;;1.20;0.93;;;16.60;99.90;;;;;;4960779;28;20053;-76
2023/03/22 12:05:27;;;;;;;1.55;0.93;;;16.60;99.90;;;;;;4966230;28;20550;-76
2023/03/22 12:08:17;;;;;;;2.83;1.05;;;16.60;99.90;;;;;;4971336;28;20113;-76
2023/03/22 12:10:46;;;;;;;;;;;16.60;99.90;;;;;;4966463;28;20042;-76
2023/03/22 12:13:37;;;;;;;2.10;1.10;;;16.70;99.90;;;;;;4958927;28;20449;-76
2023/03/22 12:16:06;;;;;;;1.55;0.80;;;16.70;99.90;;;;;;4969997;28;20047;-76
2023/03/22 12:18:40;;;;;;;1.10;0.70;;;16.70;99.90;;;;;;4965863;28;20047;-76
2023/03/22 12:21:09;;;;;;;1.95;0.70;;;16.70;99.90;;;;;;4967145;28;20043;-76
2023/03/22 12:23:36;;;;;;;1.40;0.70;;;16.70;99.90;;;;;;4976572;28;20055;-76
2023/03/22 12:26:20;;;;;;;1.15;0.60;;;16.70;99.90;;;;;;4972729;28;20126;-76
2023/03/22 12:28:57;;;;;;;1.00;0.80;;;16.80;99.90;;;;;;4971540;28;20125;-76
2023/03/22 12:31:31;;;;;;;2.58;0.80;;;16.80;99.90;;;;;;4970550;28;20059;-76
2023/03/22 12:34:03;;;;;;;1.40;0.50;;;16.80;99.90;;;;;;4972676;28;20521;-76
2023/03/22 12:36:48;;;;;;;2.97;1.08;;;16.80;99.90;;;;;;4967127;28;20054;-76
2023/03/22 12:39:41;;;;;;;2.20;1.17;;;16.90;99.90;;;;;;4970275;28;20042;-76
2023/03/22 12:42:26;;;;;;;1.70;0.88;;;17.00;99.90;;;;;;4967903;28;20048;-76
2023/03/22 12:45:05;;;;;;;0.50;0.50;;;17.10;99.90;;;;;;4971999;28;20510;-76
2023/03/22 12:47:44;;;;;;;1.83;0.85;;;17.10;99.90;;;;;;4970389;28;20046;-76
2023/03/22 12:50:15;;;;;;;1.13;0.52;;;17.20;99.90;;;;;;4970316;28;20062;-77
2023/03/22 12:52:48;;;;;;;6.45;0.95;;;17.20;99.90;;;;;;4970208;28;20422;-76
2023/03/22 12:55:38;;;;;;;4.18;0.60;;;17.30;99.90;;;;;;4968443;28;20058;-76
2023/03/22 12:58:07;;;;;;;0.93;0.63;;;17.30;99.90;;;;;;4971528;28;20046;-77
2023/03/22 13:00:55;;;;;;;2.35;0.68;;;17.40;99.90;;;;;;4974381;28;20043;-80
2023/03/22 13:03:28;;;;;;;2.33;0.70;;;17.40;99.90;;;;;;4970292;28;20046;-77
2023/03/22 13:06:02;;;;;;;3.47;1.00;;;17.40;99.90;;;;;;4966804;28;20047;-76
2023/03/22 13:09:08;;;;;;;4.32;1.13;;;17.40;99.90;;;;;;4966250;28;20043;-77
2023/03/22 13:11:35;;;;;;;1.23;0.75;;;17.40;99.90;;;;;;4970407;28;20430;-76
2023/03/22 13:14:01;;;;;;;2.58;0.98;;;17.40;99.90;;;;;;4967682;28;20043;-76